Time;durP1;ratioP1;P1;durP2;ratioP2;P2;SDS_P1;SDS_P2;PMS_P1;PMS_P2;Temp;Humidity;BMP_temperature;BMP_pressure;BME280_temperature;BME280_humidity;BME280_pressure;Samples;Min_cycle;Max_cycle;Signal;HPM_P1;HPM_P2
2024/01/15 00:02:57;;;;;;;4.72;3.25;;;;;;;1.20;82.12;148969.63;10631328;27;20039;-74
2024/01/15 00:07:59;;;;;;;3.78;2.70;;;;;;;1.08;83.49;148940.13;10628935;27;20046;-74
2024/01/15 00:13:01;;;;;;;6.93;4.55;;;;;;;1.10;83.69;148943.94;10629676;27;20039;-74
2024/01/15 00:18:03;;;;;;;5.32;3.92;;;;;;;1.08;83.75;148938.84;10645035;27;20035;-74
2024/01/15 00:23:05;;;;;;;4.82;3.67;;;;;;;1.05;83.96;148931.16;10630497;27;20067;-75
2024/01/15 00:28:07;;;;;;;6.22;3.83;;;;;;;1.03;84.12;148926.03;10631987;27;20094;-75
2024/01/15 00:33:11;;;;;;;5.03;3.55;;;;;;;1.07;84.30;148936.28;10627882;27;20047;-75
2024/01/15 00:38:13;;;;;;;5.55;3.72;;;;;;;1.00;84.77;148920.88;10628136;27;20038;-74
2024/01/15 00:43:15;;;;;;;5.78;4.57;;;;;;;1.03;84.49;148927.31;10626734;27;20072;-75
2024/01/15 00:48:16;;;;;;;4.07;3.45;;;;;;;0.87;85.66;148886.31;10628243;27;20039;-75
2024/01/15 00:53:19;;;;;;;6.13;4.22;;;;;;;0.99;84.07;148918.34;10626934;27;20043;-75
2024/01/15 00:58:21;;;;;;;6.55;3.03;;;;;;;0.93;84.44;148901.66;10625546;27;20047;-75
2024/01/15 01:03:23;;;;;;;5.07;3.70;;;;;;;1.03;83.13;148926.03;10627732;27;20110;-75
2024/01/15 01:08:25;;;;;;;7.40;4.35;;;;;;;0.89;84.08;148892.72;10627502;27;20031;-74
2024/01/15 01:13:27;;;;;;;4.82;3.47;;;;;;;0.98;83.07;148915.78;10627895;27;20066;-74
2024/01/15 01:18:28;;;;;;;5.22;4.32;;;;;;;0.83;84.07;148877.31;10628168;27;20466;-75
2024/01/15 01:23:30;;;;;;;6.10;4.60;;;;;;;0.80;84.17;148868.34;10625088;28;20045;-75
2024/01/15 01:28:32;;;;;;;6.43;4.78;;;;;;;0.81;83.55;148872.22;10626267;27;20039;-75
2024/01/15 01:33:34;;;;;;;8.30;4.43;;;;;;;0.78;84.09;148864.53;10635880;27;20491;-75
2024/01/15 01:38:37;;;;;;;8.30;4.38;;;;;;;0.76;83.76;148859.41;10635311;27;20046;-74
2024/01/15 01:43:39;;;;;;;6.65;4.72;;;;;;;0.68;83.78;148840.19;10634195;27;20066;-75
2024/01/15 01:48:41;;;;;;;6.18;4.78;;;;;;;0.63;84.37;148826.13;10634703;27;20464;-75
2024/01/15 01:53:45;;;;;;;6.93;4.32;;;;;;;0.60;84.10;148819.69;10635949;27;20043;-75
2024/01/15 01:58:47;;;;;;;6.60;4.55;;;;;;;0.65;83.28;148832.50;10634026;27;20044;-75
2024/01/15 02:03:49;;;;;;;7.30;4.30;;;;;;;0.62;83.51;148824.84;10632455;27;20130;-75
2024/01/15 02:08:51;;;;;;;7.13;4.95;;;;;;;0.63;83.18;148826.13;10633680;27;20035;-75
2024/01/15 02:13:53;;;;;;;6.80;4.13;;;;;;;0.69;82.46;148842.75;10633616;27;20039;-76
2024/01/15 02:18:55;;;;;;;6.18;4.40;;;;;;;0.62;83.12;148824.84;10634371;27;20035;-75
2024/01/15 02:23:57;;;;;;;7.82;4.35;;;;;;;0.62;83.07;148823.53;10633299;27;20101;-75
2024/01/15 02:28:59;;;;;;;7.30;4.25;;;;;;;0.62;82.75;148824.84;10632895;27;20089;-76
2024/01/15 02:34:01;;;;;;;6.28;4.22;;;;;;;0.62;82.33;148823.53;10632824;27;20047;-76
2024/01/15 02:39:03;;;;;;;6.85;4.82;;;;;;;0.64;82.48;148829.94;10632775;27;20043;-76
2024/01/15 02:44:05;;;;;;;6.47;5.10;;;;;;;0.65;81.58;148831.22;10647769;27;20082;-76
2024/01/15 02:49:07;;;;;;;6.47;3.78;;;;;;;0.62;81.85;148823.53;10631206;27;20036;-76
2024/01/15 02:54:08;;;;;;;6.28;4.57;;;;;;;0.57;81.64;148810.72;10631122;27;20041;-75
2024/01/15 02:59:10;;;;;;;7.25;4.50;;;;;;;0.54;82.50;148804.34;10631644;27;20114;-75
2024/01/15 03:04:12;;;;;;;9.90;5.00;;;;;;;0.57;81.57;148810.72;10630861;27;20047;-75
2024/01/15 03:09:14;;;;;;;11.88;6.30;;;;;;;0.44;82.57;148778.69;10630574;27;20039;-75
2024/01/15 03:14:16;;;;;;;8.23;5.70;;;;;;;0.40;81.86;148768.44;10630990;27;20035;-75
2024/01/15 03:19:18;;;;;;;7.00;5.00;;;;;;;0.44;81.84;148778.69;10628785;27;20043;-76
2024/01/15 03:24:19;;;;;;;6.05;4.75;;;;;;;0.36;82.19;148759.53;10628405;27;20051;-75
2024/01/15 03:29:21;;;;;;;8.07;5.80;;;;;;;0.36;81.32;148759.53;10629469;27;20039;-75
2024/01/15 03:34:23;;;;;;;7.68;6.03;;;;;;;0.35;81.36;148755.66;10629806;27;20043;-75
2024/01/15 03:39:25;;;;;;;8.85;5.55;;;;;;;0.29;80.99;148740.28;10627247;27;20475;-75
2024/01/15 03:44:27;;;;;;;7.65;5.43;;;;;;;0.28;81.69;148739.03;10629002;27;20091;-75
2024/01/15 03:49:29;;;;;;;12.00;5.85;;;;;;;0.21;82.38;148722.34;10629588;27;20064;-75
2024/01/15 03:54:31;;;;;;;8.00;6.22;;;;;;;0.13;83.17;148701.84;10627280;27;20095;-75
2024/01/15 03:59:32;;;;;;;9.40;7.13;;;;;;;0.05;85.23;148681.41;10629860;27;20118;-75
2024/01/15 04:04:34;;;;;;;8.55;5.63;;;;;;;0.08;84.52;148689.06;10630533;27;20071;-76
2024/01/15 04:09:36;;;;;;;8.45;6.15;;;;;;;-0.06;86.04;148654.50;10646314;27;20035;-76
2024/01/15 04:14:38;;;;;;;7.60;5.82;;;;;;;0.02;84.93;148673.72;10629371;27;20043;-75
2024/01/15 04:19:43;;;;;;;8.65;5.47;;;;;;;-0.02;84.87;148663.47;10628346;27;20031;-77
2024/01/15 04:24:45;;;;;;;10.65;6.10;;;;;;;-0.11;85.52;148641.72;10627761;27;20031;-75
2024/01/15 04:29:47;;;;;;;11.25;7.03;;;;;;;-0.08;83.41;148649.41;10627303;27;20035;-75
2024/01/15 04:34:49;;;;;;;8.02;6.38;;;;;;;-0.08;83.61;148649.41;10627275;27;20049;-76
2024/01/15 04:39:53;;;;;;;8.35;5.53;;;;;;;-0.11;83.24;148640.44;10625828;27;20448;-75
2024/01/15 04:44:55;;;;;;;9.40;6.25;;;;;;;-0.09;82.60;148645.53;10627011;27;20084;-76
2024/01/15 04:49:57;;;;;;;12.02;5.80;;;;;;;-0.15;82.76;148630.19;10626947;27;20066;-75
2024/01/15 04:54:59;;;;;;;10.13;6.25;;;;;;;-0.22;82.25;148612.25;10626669;27;20047;-75
2024/01/15 05:00:00;;;;;;;9.13;5.88;;;;;;;-0.30;82.55;148593.09;10626958;27;20074;-75
2024/01/15 05:05:02;;;;;;;9.88;5.72;;;;;;;-0.45;82.83;148554.69;10626717;27;20046;-76
2024/01/15 05:10:05;;;;;;;9.82;5.78;;;;;;;-0.44;83.01;148558.53;10625211;27;20111;-75
2024/01/15 05:15:07;;;;;;;7.15;5.40;;;;;;;-0.34;83.02;148582.84;10642387;27;20134;-75
2024/01/15 05:20:09;;;;;;;10.43;5.70;;;;;;;-0.40;83.72;148567.47;10624428;27;20422;-76
2024/01/15 05:25:11;;;;;;;9.68;5.28;;;;;;;-0.39;83.70;148570.06;10626883;27;20494;-75
2024/01/15 05:30:14;;;;;;;11.77;5.45;;;;;;;-0.27;82.51;148602.06;10627633;27;20035;-76
2024/01/15 05:35:16;;;;;;;6.63;4.45;;;;;;;-0.27;81.90;148600.75;10627057;27;20035;-76
2024/01/15 05:40:17;;;;;;;8.93;4.82;;;;;;;-0.37;82.49;148576.44;10626125;27;20043;-75
2024/01/15 05:45:19;;;;;;;6.95;4.82;;;;;;;-0.26;81.12;148604.59;10642338;27;20452;-75
2024/01/15 05:50:22;;;;;;;7.97;5.15;;;;;;;-0.30;81.10;148593.09;10626985;27;20050;-76
2024/01/15 05:55:23;;;;;;;9.10;5.80;;;;;;;-0.26;80.90;148604.59;10644029;27;20504;-75
2024/01/15 06:00:25;;;;;;;7.43;5.35;;;;;;;-0.26;80.88;148604.59;10641775;27;20120;-75
2024/01/15 06:05:27;;;;;;;7.90;5.63;;;;;;;-0.26;80.77;148604.59;10625021;27;20051;-74
2024/01/15 06:10:29;;;;;;;6.32;4.82;;;;;;;-0.22;79.93;148612.25;10624994;27;20039;-75
2024/01/15 06:15:30;;;;;;;6.90;4.85;;;;;;;-0.20;80.00;148617.41;10626663;27;20073;-76
2024/01/15 06:20:32;;;;;;;6.68;5.03;;;;;;;-0.06;78.03;148654.50;10648839;27;20046;-76
2024/01/15 06:25:34;;;;;;;5.97;3.85;;;;;;;-0.10;78.47;148644.25;10633153;27;20047;-77
2024/01/15 06:30:36;;;;;;;8.18;5.03;;;;;;;-0.13;78.01;148635.34;10649251;27;20071;-75
2024/01/15 06:35:38;;;;;;;6.43;4.10;;;;;;;-0.09;77.55;148646.88;10633498;27;20486;-76
2024/01/15 06:40:45;;;;;;;5.95;3.80;;;;;;;-0.11;78.23;148641.72;10630891;27;20049;-76
2024/01/15 06:45:47;;;;;;;5.88;4.22;;;;;;;-0.10;77.89;148643.00;10632536;27;20427;-75
2024/01/15 06:50:48;;;;;;;7.53;4.18;;;;;;;-0.09;77.81;148645.53;10632489;27;20035;-76
2024/01/15 06:55:51;;;;;;;6.93;4.22;;;;;;;-0.12;77.36;148639.16;10631210;27;20049;-75
2024/01/15 07:00:52;;;;;;;5.35;3.58;;;;;;;-0.12;76.77;148637.88;10632106;27;20555;-74
2024/01/15 07:05:54;;;;;;;5.53;3.47;;;;;;;-0.20;77.37;148617.41;10631633;27;20088;-76
2024/01/15 07:10:56;;;;;;;5.00;4.03;;;;;;;-0.12;76.56;148637.88;10631431;27;20043;-75
2024/01/15 07:15:58;;;;;;;5.13;3.70;;;;;;;-0.19;76.65;148621.22;10631673;27;20043;-76
2024/01/15 07:21:01;;;;;;;5.97;4.00;;;;;;;-0.16;76.40;148627.66;10630976;27;20410;-75
2024/01/15 07:26:05;;;;;;;4.90;3.50;;;;;;;-0.17;76.25;148625.09;10631110;27;20543;-75
2024/01/15 07:31:06;;;;;;;4.68;3.60;;;;;;;-0.11;76.36;148641.72;10630835;27;20077;-75
2024/01/15 07:36:08;;;;;;;6.40;3.90;;;;;;;-0.13;77.04;148636.63;10646997;27;20047;-75
2024/01/15 07:41:10;;;;;;;7.28;4.43;;;;;;;-0.21;77.68;148614.84;10646126;27;20051;-76
2024/01/15 07:46:12;;;;;;;6.75;4.28;;;;;;;-0.17;77.33;148625.09;10630828;27;20043;-76
2024/01/15 07:51:14;;;;;;;5.40;3.92;;;;;;;-0.22;77.18;148613.56;10630979;27;20094;-77
2024/01/15 07:56:16;;;;;;;6.20;4.18;;;;;;;-0.22;76.74;148613.56;10630629;27;20053;-77
2024/01/15 08:01:18;;;;;;;6.35;3.25;;;;;;;-0.18;76.45;148623.78;10629180;27;20507;-75
2024/01/15 08:06:21;;;;;;;7.70;3.70;;;;;;;-0.12;76.17;148637.88;10630379;27;20053;-75
2024/01/15 08:11:22;;;;;;;6.68;3.75;;;;;;;-0.10;76.27;148643.00;10645966;27;20054;-75
2024/01/15 08:16:25;;;;;;;6.65;3.58;;;;;;;-0.18;76.60;148623.78;10630235;27;20043;-75
2024/01/15 08:21:29;;;;;;;5.28;3.45;;;;;;;-0.12;75.51;148639.16;10630870;27;20100;-75
2024/01/15 08:26:34;;;;;;;6.15;3.75;;;;;;;-0.13;75.55;148635.34;10634983;27;20043;-77
2024/01/15 08:31:36;;;;;;;6.03;3.47;;;;;;;-0.12;75.78;148639.16;10644853;27;20069;-75
2024/01/15 08:36:40;;;;;;;4.50;3.00;;;;;;;-0.16;76.18;148627.66;10628495;27;20047;-75
2024/01/15 08:41:42;;;;;;;5.97;3.08;;;;;;;-0.10;75.61;148644.25;10628607;27;20070;-75
2024/01/15 08:46:44;;;;;;;6.05;3.85;;;;;;;-0.09;75.76;148645.53;10627026;27;20536;-75
2024/01/15 08:51:46;;;;;;;5.43;3.50;;;;;;;-0.09;75.62;148645.53;10626008;27;20047;-75
2024/01/15 08:56:48;;;;;;;4.15;3.15;;;;;;;-0.03;75.00;148660.94;10628241;27;20562;-75
2024/01/15 09:01:50;;;;;;;4.50;2.60;;;;;;;0.05;74.28;148680.13;10626998;27;20515;-76
2024/01/15 09:06:52;;;;;;;4.75;3.20;;;;;;;0.02;74.91;148673.72;10627995;27;20054;-76
2024/01/15 09:11:54;;;;;;;5.85;3.42;;;;;;;0.07;73.73;148686.50;10646490;27;20044;-75
2024/01/15 09:16:57;;;;;;;4.18;2.85;;;;;;;0.26;72.90;148733.88;10629594;27;20047;-75
2024/01/15 09:21:59;;;;;;;5.03;2.78;;;;;;;0.28;72.88;148737.75;10631340;27;20039;-76
2024/01/15 09:27:01;;;;;;;6.05;4.20;;;;;;;0.30;72.78;148742.84;10628760;28;20463;-75
2024/01/15 09:32:04;;;;;;;10.20;2.40;;;;;;;0.34;71.80;148754.38;10627771;27;20041;-75
2024/01/15 09:37:05;;;;;;;4.47;2.80;;;;;;;0.43;71.40;148776.16;10627236;28;20043;-75
2024/01/15 09:42:08;;;;;;;3.00;2.28;;;;;;;0.58;71.21;148813.31;10626691;27;20043;-75
2024/01/15 09:47:11;;;;;;;4.80;3.35;;;;;;;0.53;71.13;148801.75;10627227;27;20125;-75
2024/01/15 09:52:15;;;;;;;3.63;1.73;;;;;;;0.72;69.85;148849.16;10631563;27;20054;-76
2024/01/15 09:57:18;;;;;;;4.18;2.13;;;;;;;0.92;69.55;148900.38;10634389;27;20122;-76
2024/01/15 10:02:20;;;;;;;4.28;2.67;;;;;;;1.04;68.92;148929.88;10634633;27;20046;-76
2024/01/15 10:07:23;;;;;;;3.58;2.38;;;;;;;0.87;68.85;148886.31;10634555;27;20136;-77
2024/01/15 10:12:27;;;;;;;3.65;2.15;;;;;;;0.61;69.83;148820.97;10634472;27;20051;-78
2024/01/15 10:17:30;;;;;;;5.57;2.33;;;;;;;0.58;69.93;148814.59;10634446;27;20130;-76
2024/01/15 10:22:32;;;;;;;4.88;3.10;;;;;;;0.73;70.22;148851.72;10633652;27;20099;-76
2024/01/15 10:27:34;;;;;;;3.80;2.58;;;;;;;0.87;68.51;148886.31;10633954;27;20046;-76
2024/01/15 10:32:36;;;;;;;5.95;2.65;;;;;;;0.93;69.11;148901.66;10631643;27;20039;-75
2024/01/15 10:37:38;;;;;;;6.70;2.58;;;;;;;1.01;68.55;148922.16;10632601;27;20399;-75
2024/01/15 10:42:41;;;;;;;3.75;2.25;;;;;;;1.04;68.55;148928.59;10632693;27;20127;-76
2024/01/15 10:47:43;;;;;;;7.97;2.72;;;;;;;1.06;68.56;148933.69;10631645;27;20035;-77
2024/01/15 10:52:46;;;;;;;4.82;2.58;;;;;;;0.99;68.16;148918.34;10631351;27;20099;-75
2024/01/15 10:57:49;;;;;;;4.75;3.05;;;;;;;0.99;67.96;148917.06;10630897;27;20423;-76
2024/01/15 11:02:55;;;;;;;4.65;2.30;;;;;;;1.03;67.90;148927.31;10634769;27;20482;-75
2024/01/15 11:08:00;;;;;;;6.85;2.35;;;;;;;1.36;67.13;149009.31;10635057;27;20063;-75
2024/01/15 11:13:02;;;;;;;3.50;2.33;;;;;;;1.48;66.64;149040.09;10643030;27;20183;-82
2024/01/15 11:18:05;;;;;;;4.22;2.63;;;;;;;1.36;66.56;149010.59;10652228;27;20035;-80
2024/01/15 11:23:08;;;;;;;4.53;2.75;;;;;;;1.43;66.53;149028.56;10643403;27;20100;-82
2024/01/15 11:28:49;;;;;;;4.47;2.70;;;;;;;1.41;65.84;149022.13;10643798;27;20043;-80
2024/01/15 11:33:51;;;;;;;5.38;2.90;;;;;;;1.42;66.08;149026.00;10642933;27;20058;-80
2024/01/15 11:38:53;;;;;;;3.10;2.30;;;;;;;1.60;66.07;149069.59;10646855;27;20440;-81
2024/01/15 11:43:54;;;;;;;3.40;2.33;;;;;;;2.16;64.25;149211.88;10644434;27;20143;-81
2024/01/15 11:49:04;;;;;;;4.20;2.42;;;;;;;1.78;64.89;149115.72;10647184;27;20403;-82
2024/01/15 11:54:10;;;;;;;4.10;2.88;;;;;;;1.68;65.21;149091.38;10644781;27;20506;-80
2024/01/15 11:59:13;;;;;;;5.72;2.75;;;;;;;1.64;66.18;149081.13;10646310;27;20092;-81
2024/01/15 12:04:17;;;;;;;5.32;3.08;;;;;;;1.55;66.45;149056.72;10645870;27;20051;-82
2024/01/15 12:09:19;;;;;;;3.33;2.10;;;;;;;1.53;66.49;149052.91;10647411;27;20117;-78
2024/01/15 12:14:22;;;;;;;5.95;2.45;;;;;;;1.47;68.66;149037.53;10643911;27;20138;-80
2024/01/15 12:19:24;;;;;;;4.35;2.22;;;;;;;1.40;69.77;149019.56;10644558;27;20525;-80
2024/01/15 12:24:25;;;;;;;3.67;2.60;;;;;;;1.31;70.44;148997.78;10645868;27;20047;-80
2024/01/15 12:29:27;;;;;;;4.70;2.80;;;;;;;1.34;70.57;149005.47;10646519;27;20055;-82
2024/01/15 12:34:30;;;;;;;5.20;2.60;;;;;;;1.29;71.85;148992.66;10644976;27;20050;-80
2024/01/15 12:39:34;;;;;;;3.97;2.72;;;;;;;1.21;72.72;148972.16;10643025;27;20046;-80
2024/01/15 12:44:37;;;;;;;3.92;2.65;;;;;;;1.19;73.56;148967.00;10641088;27;20118;-79
2024/01/15 12:49:39;;;;;;;6.28;2.97;;;;;;;1.03;75.46;148926.03;10643344;27;20035;-80
2024/01/15 12:54:42;;;;;;;3.70;2.50;;;;;;;0.98;76.46;148914.50;10644264;27;20096;-80
2024/01/15 12:59:45;;;;;;;3.00;2.17;;;;;;;0.84;78.04;148879.94;10642191;27;20062;-80
2024/01/15 13:04:46;;;;;;;4.97;3.10;;;;;;;0.88;78.44;148888.84;10642755;27;20035;-80
2024/01/15 13:09:53;;;;;;;4.55;2.95;;;;;;;0.90;78.55;148895.28;10643142;27;20035;-79
2024/01/15 13:14:56;;;;;;;7.47;2.90;;;;;;;0.91;78.38;148896.56;10637251;27;20514;-78
2024/01/15 13:19:58;;;;;;;4.45;2.50;;;;;;;0.87;78.70;148886.31;10636824;27;20035;-77
2024/01/15 13:25:00;;;;;;;5.55;2.80;;;;;;;0.87;78.51;148886.31;10638607;27;20043;-79
2024/01/15 13:30:03;;;;;;;4.63;2.97;;;;;;;0.93;80.38;148902.97;10648131;27;20068;-78
2024/01/15 13:35:09;;;;;;;3.92;2.88;;;;;;;0.76;82.65;148859.41;10652107;27;20051;-78
2024/01/15 13:40:16;;;;;;;4.37;2.30;;;;;;;0.68;83.20;148838.91;10651678;27;20043;-78
2024/01/15 13:45:20;;;;;;;;;;;;;;;0.61;86.25;148820.97;10651685;27;20460;-76
2024/01/15 13:50:22;;;;;;;11.45;3.25;;;;;;;0.52;89.92;148799.19;10651320;27;19923;-79
2024/01/15 13:55:26;;;;;;;4.32;3.22;;;;;;;0.31;92.36;148745.41;10650125;27;20047;-78
2024/01/15 14:00:28;;;;;;;5.47;3.17;;;;;;;0.01;96.88;148669.91;10650260;27;20039;-79
2024/01/15 14:05:31;;;;;;;4.07;2.83;;;;;;;-0.06;98.73;148654.50;10652274;27;20043;-78
2024/01/15 14:10:33;;;;;;;5.10;3.17;;;;;;;-0.05;97.80;148655.78;10650765;27;20452;-79
2024/01/15 14:15:35;;;;;;;5.70;3.30;;;;;;;-0.06;98.70;148654.50;10653518;27;20050;-79
2024/01/15 14:20:37;;;;;;;4.90;3.03;;;;;;;-0.21;100.00;148616.13;10655050;27;20054;-79
2024/01/15 14:25:39;;;;;;;3.45;2.83;;;;;;;-0.20;100.00;148617.41;10650465;27;20141;-78
2024/01/15 14:30:41;;;;;;;4.32;3.03;;;;;;;-0.16;99.64;148628.91;10649146;27;20127;-78
2024/01/15 14:35:42;;;;;;;5.78;3.17;;;;;;;-0.11;99.54;148641.72;10641351;27;20126;-79
2024/01/15 14:40:44;;;;;;;4.28;3.08;;;;;;;-0.29;100.00;148595.66;10638247;27;20130;-78
2024/01/15 14:45:46;;;;;;;4.53;3.50;;;;;;;-0.33;100.00;148585.41;10643365;27;20071;-79
2024/01/15 14:50:50;;;;;;;4.05;3.15;;;;;;;-0.37;100.00;148576.44;10638060;27;20035;-78
2024/01/15 14:55:54;;;;;;;7.55;3.70;;;;;;;-0.51;100.00;148541.88;10641942;27;20051;-78
2024/01/15 15:00:55;;;;;;;6.93;3.85;;;;;;;-0.47;100.00;148549.59;10640824;27;20088;-79
2024/01/15 15:05:57;;;;;;;4.72;3.75;;;;;;;-0.49;100.00;148544.44;10642387;27;20053;-78
2024/01/15 15:11:00;;;;;;;7.82;3.83;;;;;;;-0.59;100.00;148521.41;10631823;27;20039;-78
2024/01/15 15:16:02;;;;;;;5.82;3.80;;;;;;;-0.47;100.00;148550.84;10632220;27;20507;-79
2024/01/15 15:21:04;;;;;;;4.60;3.92;;;;;;;-0.43;100.00;148561.09;10636492;27;20031;-79
2024/01/15 15:26:06;;;;;;;4.28;3.28;;;;;;;-0.35;100.00;148581.56;10635838;27;20425;-80
2024/01/15 15:31:08;;;;;;;4.93;3.65;;;;;;;-0.27;100.00;148600.75;10642353;27;20491;-79
2024/01/15 15:36:11;;;;;;;5.65;3.33;;;;;;;-0.25;99.43;148605.88;10644999;27;20055;-79
2024/01/15 15:41:14;;;;;;;4.78;3.50;;;;;;;-0.27;100.00;148602.06;10647588;27;20410;-80
2024/01/15 15:46:16;;;;;;;6.18;3.83;;;;;;;-0.30;100.00;148593.09;10641698;27;20466;-80
2024/01/15 15:51:18;;;;;;;6.55;4.28;;;;;;;-0.29;100.00;148595.66;10640253;27;20039;-79
2024/01/15 15:56:20;;;;;;;5.35;4.03;;;;;;;-0.24;100.00;148607.16;10640457;27;20158;-80
2024/01/15 16:01:22;;;;;;;7.97;4.43;;;;;;;-0.17;97.09;148626.38;10639254;27;20126;-80
2024/01/15 16:06:24;;;;;;;6.78;4.28;;;;;;;-0.19;97.20;148619.94;10638016;27;20070;-80
2024/01/15 16:11:26;;;;;;;4.13;3.33;;;;;;;-0.21;97.92;148614.84;10655925;27;20051;-80
2024/01/15 16:16:28;;;;;;;7.80;4.70;;;;;;;-0.14;98.17;148634.03;10640311;27;20100;-81
2024/01/15 16:21:50;;;;;;;7.45;5.15;;;;;;;-0.08;97.42;148648.13;10638117;27;20057;-79
2024/01/15 16:27:11;;;;;;;9.23;4.25;;;;;;;-0.09;96.77;148645.53;10640563;27;20084;-80
2024/01/15 16:32:14;;;;;;;7.25;4.70;;;;;;;-0.11;96.03;148641.72;10642514;27;20407;-79
2024/01/15 16:37:16;;;;;;;4.68;3.58;;;;;;;-0.06;98.60;148654.50;10642796;27;20439;-79
2024/01/15 16:42:18;;;;;;;6.78;4.47;;;;;;;0.03;95.09;148675.00;10640387;27;20039;-79
2024/01/15 16:47:20;;;;;;;6.25;4.57;;;;;;;-0.05;96.01;148655.78;10656953;27;20051;-79
2024/01/15 16:52:22;;;;;;;9.63;4.60;;;;;;;-0.10;98.65;148643.00;10639482;27;20425;-79
2024/01/15 16:57:24;;;;;;;6.95;4.85;;;;;;;-0.13;100.00;148635.34;10639341;27;20051;-80
2024/01/15 17:02:25;;;;;;;10.07;4.93;;;;;;;-0.40;100.00;148567.47;10637505;27;20069;-80
2024/01/15 17:07:28;;;;;;;6.03;4.75;;;;;;;-0.31;100.00;148590.50;10656999;27;20095;-79
2024/01/15 17:12:30;;;;;;;7.88;4.20;;;;;;;-0.20;100.00;148617.41;10640990;27;20031;-79
2024/01/15 17:17:32;;;;;;;6.13;3.60;;;;;;;-0.19;100.00;148621.22;10638365;27;20053;-79
2024/01/15 17:22:34;;;;;;;4.50;4.10;;;;;;;-0.11;99.03;148640.44;10639299;27;20039;-79
2024/01/15 17:27:35;;;;;;;5.97;3.78;;;;;;;0.06;95.54;148682.69;10635940;27;20043;-78
2024/01/15 17:32:37;;;;;;;4.80;3.38;;;;;;;0.07;93.36;148686.50;10638738;27;20123;-79
2024/01/15 17:37:39;;;;;;;4.22;3.05;;;;;;;0.15;91.70;148705.72;10638339;27;20060;-78
2024/01/15 17:42:41;;;;;;;4.65;3.15;;;;;;;0.10;91.78;148694.22;10638660;27;20040;-80
2024/01/15 17:47:43;;;;;;;4.97;2.67;;;;;;;0.06;92.59;148682.69;10655646;27;20055;-81
2024/01/15 17:52:45;;;;;;;4.40;3.78;;;;;;;-0.04;95.01;148659.66;10636832;27;20050;-81
2024/01/15 17:57:47;;;;;;;3.95;3.13;;;;;;;-0.07;99.02;148651.97;10652038;27;20043;-79
2024/01/15 18:02:49;;;;;;;4.25;2.90;;;;;;;-0.09;100.00;148646.88;10642018;27;20031;-80
2024/01/15 18:07:51;;;;;;;5.45;3.92;;;;;;;-0.11;100.00;148640.44;10636994;27;20073;-80
2024/01/15 18:12:53;;;;;;;4.95;3.30;;;;;;;-0.20;100.00;148618.69;10642424;27;20035;-80
2024/01/15 18:17:55;;;;;;;4.82;3.67;;;;;;;-0.23;100.00;148609.72;10663298;27;20054;-79
2024/01/15 18:22:56;;;;;;;6.20;4.43;;;;;;;-0.26;100.00;148604.59;10645665;27;20046;-79
2024/01/15 18:27:59;;;;;;;6.30;4.50;;;;;;;-0.16;100.00;148628.91;10645646;27;20054;-79
2024/01/15 18:33:01;;;;;;;4.47;3.88;;;;;;;-0.16;100.00;148628.91;10661979;27;20130;-79
2024/01/15 18:38:04;;;;;;;4.28;3.88;;;;;;;-0.15;100.00;148631.47;10645777;27;20398;-79
2024/01/15 18:43:06;;;;;;;5.80;4.38;;;;;;;-0.09;100.00;148646.88;10647704;27;20104;-80
2024/01/15 18:48:10;;;;;;;8.00;4.72;;;;;;;-0.18;100.00;148623.78;10664028;27;20039;-79
2024/01/15 18:53:13;;;;;;;6.40;4.72;;;;;;;-0.32;100.00;148587.94;10649885;27;20046;-81
2024/01/15 18:58:16;;;;;;;5.53;4.28;;;;;;;-0.34;100.00;148584.13;10666485;27;20072;-79
2024/01/15 19:03:18;;;;;;;7.32;4.22;;;;;;;-0.34;100.00;148584.13;10645018;27;20039;-79
2024/01/15 19:08:20;;;;;;;5.68;4.40;;;;;;;-0.32;100.00;148587.94;10658557;27;20043;-79
2024/01/15 19:13:22;;;;;;;4.95;3.58;;;;;;;-0.29;100.00;148596.91;10635244;27;20481;-76
2024/01/15 19:18:27;;;;;;;5.10;3.92;;;;;;;-0.23;100.00;148609.72;10634140;27;20050;-76
2024/01/15 19:23:29;;;;;;;5.05;4.10;;;;;;;-0.33;100.00;148586.66;10648475;27;20183;-76
2024/01/15 19:28:31;;;;;;;5.10;4.35;;;;;;;-0.34;100.00;148582.84;10630699;27;20047;-75
2024/01/15 19:33:35;;;;;;;4.60;3.38;;;;;;;-0.36;100.00;148577.72;10632464;27;20070;-75
2024/01/15 19:38:40;;;;;;;5.05;3.63;;;;;;;-0.41;100.00;148564.91;10651049;27;20041;-76
2024/01/15 19:43:42;;;;;;;5.75;4.00;;;;;;;-0.44;100.00;148558.53;10632127;27;20490;-76
2024/01/15 19:48:44;;;;;;;4.38;3.00;;;;;;;-0.39;100.00;148571.34;10630676;27;20068;-76
2024/01/15 19:53:46;;;;;;;4.82;3.35;;;;;;;-0.43;100.00;148559.81;10630427;27;20051;-76
2024/01/15 19:58:48;;;;;;;3.97;3.42;;;;;;;-0.45;100.00;148554.69;10630097;27;20074;-75
2024/01/15 20:03:50;;;;;;;4.20;2.63;;;;;;;-0.33;100.00;148585.41;10646402;27;20062;-76
2024/01/15 20:08:54;;;;;;;4.35;3.15;;;;;;;-0.20;100.00;148617.41;10630103;27;20046;-77
2024/01/15 20:13:56;;;;;;;3.28;2.67;;;;;;;-0.07;100.00;148650.69;10628937;27;20099;-76
2024/01/15 20:19:00;;;;;;;5.18;3.10;;;;;;;-0.08;100.00;148649.41;10628608;27;20035;-76
2024/01/15 20:24:02;;;;;;;4.25;2.30;;;;;;;-0.10;100.00;148644.25;10628663;27;20049;-76
2024/01/15 20:29:05;;;;;;;3.17;2.88;;;;;;;-0.27;100.00;148602.06;10644857;27;20092;-76
2024/01/15 20:34:07;;;;;;;3.40;2.33;;;;;;;-0.16;100.00;148628.91;10628514;27;20087;-76
2024/01/15 20:39:09;;;;;;;2.28;1.98;;;;;;;-0.31;100.00;148590.50;10628948;27;20463;-76
2024/01/15 20:44:11;;;;;;;2.88;2.05;;;;;;;-0.27;100.00;148600.75;10627567;27;20043;-76
2024/01/15 20:49:13;;;;;;;2.30;1.83;;;;;;;-0.20;100.00;148618.69;10628864;27;20523;-75
2024/01/15 20:54:16;;;;;;;2.60;1.85;;;;;;;-0.26;100.00;148603.34;10626893;27;20039;-76
2024/01/15 20:59:17;;;;;;;2.58;2.13;;;;;;;-0.37;100.00;148575.16;10627591;27;20031;-75
2024/01/15 21:04:21;;;;;;;2.85;2.20;;;;;;;-0.39;100.00;148571.34;10627127;27;20043;-76
2024/01/15 21:09:23;;;;;;;2.47;1.85;;;;;;;-0.48;100.00;148548.31;10626484;27;20043;-75
2024/01/15 21:14:32;;;;;;;3.33;1.98;;;;;;;-0.49;100.00;148545.72;10627635;27;20121;-76
2024/01/15 21:19:35;;;;;;;3.20;1.60;;;;;;;-0.38;100.00;148572.59;10626940;27;20048;-75
2024/01/15 21:24:38;;;;;;;2.20;1.73;;;;;;;-0.25;100.00;148605.88;10628407;27;20047;-74
2024/01/15 21:29:39;;;;;;;2.40;1.60;;;;;;;-0.09;100.00;148645.53;10626653;27;20043;-76
2024/01/15 21:34:41;;;;;;;1.40;1.30;;;;;;;0.04;100.00;148677.53;10632295;27;20045;-75
2024/01/15 21:39:44;;;;;;;1.23;1.10;;;;;;;0.17;100.00;148712.09;10627123;28;20044;-76
2024/01/15 21:44:45;;;;;;;1.73;1.35;;;;;;;0.12;100.00;148698.03;10631792;27;20060;-75
2024/01/15 21:49:47;;;;;;;2.83;1.48;;;;;;;0.07;100.00;148685.25;10635548;27;20039;-76
2024/01/15 21:54:49;;;;;;;1.75;1.63;;;;;;;-0.03;100.00;148662.19;10637046;27;20054;-76
2024/01/15 21:59:51;;;;;;;1.77;0.98;;;;;;;0.02;100.00;148672.44;10634823;27;20062;-76
2024/01/15 22:04:53;;;;;;;0.90;0.90;;;;;;;0.09;100.00;148690.34;10637374;27;20051;-75
2024/01/15 22:09:55;;;;;;;1.33;0.98;;;;;;;0.19;100.00;148717.25;10636505;27;20063;-75
2024/01/15 22:14:57;;;;;;;1.10;1.00;;;;;;;0.02;100.00;148673.72;10637697;27;20077;-75
2024/01/15 22:19:58;;;;;;;2.05;1.10;;;;;;;-0.06;100.00;148654.50;10637480;27;20067;-76
2024/01/15 22:25:01;;;;;;;1.15;1.05;;;;;;;-0.37;100.00;148576.44;10637017;27;20039;-76
2024/01/15 22:30:04;;;;;;;1.77;1.10;;;;;;;-0.46;100.00;148553.41;10636808;27;20043;-75
2024/01/15 22:35:07;;;;;;;1.13;1.00;;;;;;;-0.26;100.00;148603.34;10636402;27;20513;-75
2024/01/15 22:40:09;;;;;;;1.65;1.23;;;;;;;-0.16;100.00;148628.91;10636511;27;20122;-74
2024/01/15 22:45:11;;;;;;;1.55;1.23;;;;;;;-0.10;100.00;148644.25;10635151;27;20031;-75
2024/01/15 22:50:17;;;;;;;5.00;1.20;;;;;;;-0.25;100.00;148605.88;10637215;27;20039;-75
2024/01/15 22:55:19;;;;;;;2.03;1.20;;;;;;;-0.27;100.00;148600.75;10636174;27;20062;-75
2024/01/15 23:00:23;;;;;;;1.45;0.82;;;;;;;-0.35;100.00;148580.31;10616748;27;20443;-75
2024/01/15 23:05:25;;;;;;;1.67;0.80;;;;;;;-0.30;100.00;148594.38;10634516;27;20042;-75
2024/01/15 23:10:27;;;;;;;4.88;1.10;;;;;;;-0.22;100.00;148613.56;10633122;27;20039;-75
2024/01/15 23:15:30;;;;;;;2.40;0.90;;;;;;;-0.08;100.00;148649.41;10633359;27;20039;-75